Time;durP1;ratioP1;P1;durP2;ratioP2;P2;SDS_P1;SDS_P2;PMS_P1;PMS_P2;Temp;Humidity;BMP_temperature;BMP_pressure;BME280_temperature;BME280_humidity;BME280_pressure;Samples;Min_cycle;Max_cycle;Signal;HPM_P1;HPM_P2
2023/12/30 00:01:39;;;;;;;6.40;3.90;;;;;;;6.99;78.76;99666.02;110797;247;38512;-72
2023/12/30 00:04:13;;;;;;;6.40;4.30;;;;;;;7.00;78.85;99668.95;110756;247;38252;-73
2023/12/30 00:06:47;;;;;;;6.10;3.90;;;;;;;7.01;79.17;99664.60;110719;247;39420;-71
2023/12/30 00:09:23;;;;;;;7.00;4.60;;;;;;;7.03;78.97;99665.75;110769;247;38531;-71
2023/12/30 00:11:58;;;;;;;7.30;4.70;;;;;;;7.03;79.04;99659.83;110740;247;39462;-74
2023/12/30 00:14:32;;;;;;;7.00;4.40;;;;;;;7.01;78.93;99662.88;110764;247;38784;-73
2023/12/30 00:17:09;;;;;;;6.50;4.50;;;;;;;6.97;78.95;99665.05;110742;247;38288;-72
2023/12/30 00:19:45;;;;;;;6.90;4.60;;;;;;;6.94;78.90;99665.19;110767;247;38241;-74
2023/12/30 00:22:19;;;;;;;7.70;5.00;;;;;;;6.90;78.92;99664.27;110722;247;38356;-72
2023/12/30 00:24:53;;;;;;;7.40;4.70;;;;;;;6.89;79.06;99668.98;110762;247;38319;-75
2023/12/30 00:27:27;;;;;;;7.40;4.90;;;;;;;6.87;79.20;99669.58;110757;247;38250;-73
2023/12/30 00:30:01;;;;;;;9.60;4.50;;;;;;;6.84;79.20;99665.16;110751;247;38375;-73
2023/12/30 00:32:35;;;;;;;7.70;4.90;;;;;;;6.82;79.26;99665.08;110599;247;175488;-73
2023/12/30 00:35:11;;;;;;;6.20;4.40;;;;;;;6.77;79.30;99658.83;110784;247;38909;-76
2023/12/30 00:37:45;;;;;;;6.80;4.60;;;;;;;6.74;79.36;99659.10;110761;247;38367;-74
2023/12/30 00:40:19;;;;;;;6.90;4.40;;;;;;;6.71;79.46;99658.35;110780;247;39433;-73
2023/12/30 00:42:53;;;;;;;9.10;5.90;;;;;;;6.69;79.62;99654.05;110762;247;38820;-72
2023/12/30 00:45:27;;;;;;;12.60;8.60;;;;;;;6.67;79.82;99655.84;110777;247;38332;-75
2023/12/30 00:48:01;;;;;;;8.90;5.60;;;;;;;6.66;79.81;99653.83;110750;247;38329;-75
2023/12/30 00:50:35;;;;;;;7.90;5.30;;;;;;;6.63;79.87;99652.70;110741;247;38298;-73
2023/12/30 00:53:09;;;;;;;10.90;7.00;;;;;;;6.61;79.86;99655.22;110719;247;38992;-74
2023/12/30 00:55:43;;;;;;;9.70;5.70;;;;;;;6.57;79.91;99654.45;110643;247;175535;-73
2023/12/30 00:58:17;;;;;;;7.70;5.10;;;;;;;6.54;79.91;99649.89;110626;247;172831;-71
2023/12/30 01:00:52;;;;;;;7.60;5.90;;;;;;;6.51;79.99;99650.34;110749;247;38874;-73
2023/12/30 01:03:25;;;;;;;9.60;6.50;;;;;;;6.49;80.20;99653.15;110839;247;38332;-73
2023/12/30 01:05:59;;;;;;;9.40;5.60;;;;;;;6.49;80.38;99644.85;110791;247;38292;-73
2023/12/30 01:08:34;;;;;;;10.20;5.70;;;;;;;6.46;80.30;99639.91;110801;247;38311;-73
2023/12/30 01:11:08;;;;;;;8.40;6.20;;;;;;;6.41;80.43;99643.38;110814;247;38714;-73
2023/12/30 01:13:42;;;;;;;8.20;6.10;;;;;;;6.38;80.67;99643.29;110768;247;38772;-72
2023/12/30 01:16:16;;;;;;;11.30;6.60;;;;;;;6.40;80.89;99639.44;110797;247;39016;-73
2023/12/30 01:18:50;;;;;;;9.30;5.30;;;;;;;6.47;81.22;99633.99;110757;247;39701;-74
2023/12/30 01:21:24;;;;;;;9.70;5.10;;;;;;;6.56;81.42;99631.61;110832;247;39091;-73
2023/12/30 01:23:58;;;;;;;9.90;5.80;;;;;;;6.62;81.43;99630.90;110766;247;39716;-73
2023/12/30 01:26:32;;;;;;;9.90;5.90;;;;;;;6.66;81.40;99627.30;110768;247;39743;-72
2023/12/30 01:29:05;;;;;;;7.80;5.00;;;;;;;6.71;81.38;99630.23;110760;247;40005;-74
2023/12/30 01:31:39;;;;;;;8.60;5.00;;;;;;;6.75;81.35;99627.85;110746;247;38538;-73
2023/12/30 01:34:13;;;;;;;9.60;5.20;;;;;;;6.82;81.22;99623.45;110758;247;38542;-73
2023/12/30 01:36:47;;;;;;;8.00;5.20;;;;;;;6.88;81.03;99616.14;110946;247;37946;-74
2023/12/30 01:39:21;;;;;;;7.10;5.00;;;;;;;6.94;81.12;99621.45;110725;247;39002;-73
2023/12/30 01:41:55;;;;;;;8.70;6.00;;;;;;;6.99;80.92;99622.88;110726;247;38999;-73
2023/12/30 01:44:29;;;;;;;8.50;5.20;;;;;;;7.03;80.90;99623.61;110753;247;39795;-71
2023/12/30 01:47:04;;;;;;;10.10;5.40;;;;;;;7.04;80.74;99622.16;110770;247;39440;-73
2023/12/30 01:49:39;;;;;;;7.60;4.50;;;;;;;7.08;80.67;99616.48;110746;247;39889;-72
2023/12/30 01:52:13;;;;;;;7.90;5.00;;;;;;;7.13;80.65;99610.23;110751;247;38677;-72
2023/12/30 01:54:47;;;;;;;8.00;5.20;;;;;;;7.17;80.50;99603.15;110771;247;38570;-73
2023/12/30 01:57:21;;;;;;;9.80;5.40;;;;;;;7.20;80.43;99599.39;110745;247;39967;-73
2023/12/30 01:59:55;;;;;;;9.60;5.80;;;;;;;7.22;80.35;99593.59;110750;247;38441;-73
2023/12/30 02:02:30;;;;;;;9.30;5.30;;;;;;;7.24;80.28;99594.39;110741;247;38834;-74
2023/12/30 02:05:04;;;;;;;8.10;5.00;;;;;;;7.27;80.21;99594.80;110691;247;39763;-73
2023/12/30 02:07:38;;;;;;;7.10;5.20;;;;;;;7.31;80.03;99595.17;110068;247;906273;-73
2023/12/30 02:10:12;;;;;;;8.00;4.90;;;;;;;7.34;80.16;99595.39;110754;247;40386;-73
2023/12/30 02:12:46;;;;;;;12.60;5.70;;;;;;;7.37;79.98;99594.59;110723;247;38510;-74
2023/12/30 02:15:22;;;;;;;7.00;5.20;;;;;;;7.38;79.74;99583.10;110767;247;38552;-72
2023/12/30 02:17:56;;;;;;;8.70;5.20;;;;;;;7.37;79.64;99577.95;110701;247;38673;-73
2023/12/30 02:20:30;;;;;;;7.20;5.10;;;;;;;7.39;79.65;99575.43;110788;247;39248;-73
2023/12/30 02:23:04;;;;;;;6.80;4.70;;;;;;;7.40;79.45;99574.18;110791;247;38780;-73
2023/12/30 02:25:38;;;;;;;8.30;5.30;;;;;;;7.43;79.48;99568.34;110775;247;39912;-73
2023/12/30 02:28:12;;;;;;;9.30;5.20;;;;;;;7.45;79.50;99559.77;110784;247;38628;-72
2023/12/30 02:30:47;;;;;;;8.60;5.20;;;;;;;7.47;79.30;99556.40;110786;247;38390;-74
2023/12/30 02:33:22;;;;;;;7.20;5.20;;;;;;;7.46;79.25;99551.72;110788;247;38389;-73
2023/12/30 02:35:56;;;;;;;9.50;5.00;;;;;;;7.47;79.11;99550.14;110827;247;39725;-74
2023/12/30 02:38:30;;;;;;;8.80;4.90;;;;;;;7.48;79.03;99550.27;110805;247;39932;-74
2023/12/30 02:41:04;;;;;;;7.60;5.10;;;;;;;7.50;79.01;99545.50;110831;247;39265;-73
2023/12/30 02:43:41;;;;;;;8.30;5.40;;;;;;;7.52;78.98;99546.15;110793;247;39452;-71
2023/12/30 02:46:15;;;;;;;7.10;4.80;;;;;;;7.51;78.90;99546.16;110804;247;38683;-72
2023/12/30 02:48:49;;;;;;;9.40;5.20;;;;;;;7.50;78.90;99544.13;110817;247;39290;-73
2023/12/30 02:51:23;;;;;;;6.70;4.50;;;;;;;7.52;78.82;99545.45;110922;247;38294;-71
2023/12/30 02:53:58;;;;;;;8.50;5.10;;;;;;;7.56;78.77;99544.09;110857;247;39175;-71
2023/12/30 02:56:32;;;;;;;6.60;4.60;;;;;;;7.59;78.81;99540.83;110724;247;175528;-69
2023/12/30 02:59:06;;;;;;;7.80;5.10;;;;;;;7.60;78.63;99540.46;110846;247;38231;-70
2023/12/30 03:01:40;;;;;;;6.90;4.20;;;;;;;7.60;78.52;99547.73;110822;247;39444;-72
2023/12/30 03:04:14;;;;;;;8.80;4.80;;;;;;;7.60;78.48;99539.59;110761;247;38650;-72
2023/12/30 03:06:48;;;;;;;7.40;4.30;;;;;;;7.60;78.46;99543.59;110811;247;38775;-71
2023/12/30 03:09:22;;;;;;;6.90;4.50;;;;;;;7.62;78.48;99527.52;110817;247;38510;-72
2023/12/30 03:11:56;;;;;;;6.10;4.10;;;;;;;7.65;78.39;99523.77;110869;247;38500;-73
2023/12/30 03:14:30;;;;;;;5.50;3.90;;;;;;;7.67;78.39;99526.27;110832;247;39853;-73
2023/12/30 03:17:05;;;;;;;7.90;5.00;;;;;;;7.68;78.36;99519.82;110839;247;38713;-74
2023/12/30 03:19:40;;;;;;;5.80;4.30;;;;;;;7.68;78.30;99512.53;110758;247;38245;-72
2023/12/30 03:22:14;;;;;;;7.40;4.20;;;;;;;7.68;78.19;99494.79;110753;247;38921;-72
2023/12/30 03:24:48;;;;;;;7.50;3.80;;;;;;;7.71;78.22;99487.23;110780;247;39462;-74
2023/12/30 03:27:22;;;;;;;6.80;4.20;;;;;;;7.74;78.18;99480.14;110634;247;175456;-73
2023/12/30 03:29:55;;;;;;;6.50;4.00;;;;;;;7.77;78.27;99472.06;110806;247;38764;-74
2023/12/30 03:32:30;;;;;;;5.60;3.80;;;;;;;7.79;78.33;99472.67;110790;247;39744;-74
2023/12/30 03:35:04;;;;;;;5.20;3.90;;;;;;;7.80;78.19;99465.89;110778;247;39476;-74
2023/12/30 03:37:38;;;;;;;4.90;3.30;;;;;;;7.82;78.07;99463.36;110756;247;38327;-71
2023/12/30 03:40:14;;;;;;;4.10;3.20;;;;;;;7.85;78.00;99453.15;110717;247;38222;-73
2023/12/30 03:42:48;;;;;;;5.80;3.40;;;;;;;7.89;77.98;99452.48;110746;247;38686;-73
2023/12/30 03:45:22;;;;;;;5.60;3.90;;;;;;;7.92;77.97;99451.11;110693;247;39037;-72
2023/12/30 03:47:56;;;;;;;4.70;3.10;;;;;;;7.95;77.74;99450.29;110709;247;38418;-70
2023/12/30 03:50:30;;;;;;;4.70;3.60;;;;;;;7.97;77.67;99453.34;110728;247;39248;-73
2023/12/30 03:53:05;;;;;;;4.00;3.10;;;;;;;7.99;77.65;99449.80;110725;247;39898;-73
2023/12/30 03:55:39;;;;;;;4.70;2.90;;;;;;;8.03;77.64;99450.52;110738;247;38235;-72
2023/12/30 03:58:13;;;;;;;5.80;3.10;;;;;;;8.07;77.60;99451.53;110612;247;175236;-70
2023/12/30 04:00:47;;;;;;;6.40;3.60;;;;;;;8.09;77.42;99448.15;110712;247;38543;-72
2023/12/30 04:03:21;;;;;;;4.30;2.80;;;;;;;8.11;77.30;99439.40;110731;247;38884;-73
2023/12/30 04:06:21;;;;;;;4.60;3.00;;;;;;;8.11;77.29;99438.14;110773;247;40155;-72
2023/12/30 04:09:15;;;;;;;3.50;2.80;;;;;;;8.12;77.27;99442.81;110763;247;40289;-70
2023/12/30 04:11:48;;;;;;;3.00;2.40;;;;;;;8.14;77.18;99433.14;110739;247;39790;-74
2023/12/30 04:14:22;;;;;;;4.60;2.90;;;;;;;8.20;76.98;99431.17;110772;247;38570;-72
2023/12/30 04:16:56;;;;;;;4.40;3.00;;;;;;;8.24;76.98;99431.67;110737;247;38279;-74
2023/12/30 04:19:30;;;;;;;4.10;3.00;;;;;;;8.29;76.70;99428.70;110758;247;39020;-74
2023/12/30 04:22:05;;;;;;;4.20;2.70;;;;;;;8.32;76.70;99425.27;110777;247;38683;-72
2023/12/30 04:24:39;;;;;;;4.00;2.90;;;;;;;8.34;76.52;99430.55;110733;247;38395;-73
2023/12/30 04:27:12;;;;;;;3.00;2.50;;;;;;;8.35;76.34;99428.27;110712;247;39568;-71
2023/12/30 04:29:46;;;;;;;3.90;2.40;;;;;;;8.38;76.32;99430.06;110767;247;38954;-70
2023/12/30 04:32:21;;;;;;;4.70;2.70;;;;;;;8.43;76.10;99429.32;110761;247;39703;-73
2023/12/30 04:34:55;;;;;;;3.40;2.60;;;;;;;8.47;76.12;99425.15;110750;247;38242;-72
2023/12/30 04:37:29;;;;;;;4.10;2.90;;;;;;;8.51;76.02;99423.94;110764;247;38557;-72
2023/12/30 04:40:04;;;;;;;5.10;2.80;;;;;;;8.52;75.96;99421.26;110748;247;38220;-72
2023/12/30 04:42:38;;;;;;;3.90;2.80;;;;;;;8.53;76.11;99420.19;110625;247;175455;-72
2023/12/30 04:45:13;;;;;;;3.60;2.40;;;;;;;8.53;76.06;99419.34;110731;247;39058;-75
2023/12/30 04:47:47;;;;;;;4.30;2.70;;;;;;;8.54;75.97;99423.80;110765;247;38456;-75
2023/12/30 04:50:23;;;;;;;3.60;2.50;;;;;;;8.57;75.76;99422.13;110735;247;38549;-74
2023/12/30 04:52:57;;;;;;;3.30;2.40;;;;;;;8.59;76.01;99420.08;110727;247;38494;-73
2023/12/30 04:55:31;;;;;;;4.90;2.20;;;;;;;8.62;76.39;99414.23;110740;247;39312;-72
2023/12/30 04:58:05;;;;;;;3.90;2.30;;;;;;;8.60;76.48;99415.36;110742;247;39728;-72
2023/12/30 05:00:39;;;;;;;4.30;2.60;;;;;;;8.58;76.41;99411.63;110752;247;38747;-73
2023/12/30 05:03:13;;;;;;;3.40;2.20;;;;;;;8.59;76.51;99413.16;110756;247;39712;-73
2023/12/30 05:05:47;;;;;;;3.80;2.40;;;;;;;8.61;76.35;99412.90;110707;247;40151;-73
2023/12/30 05:08:21;;;;;;;3.40;2.40;;;;;;;8.60;76.36;99411.16;110739;247;38364;-74
2023/12/30 05:10:55;;;;;;;4.80;2.30;;;;;;;8.60;76.29;99408.04;110625;247;172309;-74
2023/12/30 05:13:29;;;;;;;2.90;2.40;;;;;;;8.60;76.28;99414.84;110761;247;38801;-75
2023/12/30 05:16:04;;;;;;;2.90;2.20;;;;;;;8.58;76.22;99414.25;110113;247;907388;-72
2023/12/30 05:18:38;;;;;;;3.40;2.40;;;;;;;8.55;76.00;99414.70;110684;247;38926;-74
2023/12/30 05:21:17;;;;;;;7.00;2.40;;;;;;;8.55;75.88;99414.70;110810;247;38848;-73
2023/12/30 05:23:51;;;;;;;3.70;2.30;;;;;;;8.58;75.92;99414.58;110751;247;38229;-74
2023/12/30 05:26:25;;;;;;;3.50;2.10;;;;;;;8.60;75.84;99413.98;110818;247;38233;-74
2023/12/30 05:28:59;;;;;;;2.80;2.00;;;;;;;8.62;75.88;99421.02;110737;247;38413;-75
2023/12/30 05:31:33;;;;;;;4.30;2.20;;;;;;;8.63;75.98;99420.30;110744;247;38341;-74
2023/12/30 05:34:08;;;;;;;2.60;2.20;;;;;;;8.62;76.00;99428.51;110704;247;39085;-74
2023/12/30 05:36:42;;;;;;;2.90;2.20;;;;;;;8.61;75.99;99430.11;110764;247;39828;-72
2023/12/30 05:39:16;;;;;;;3.10;2.20;;;;;;;8.60;75.91;99428.73;110594;247;181897;-74
2023/12/30 05:41:50;;;;;;;4.00;1.90;;;;;;;8.61;75.92;99434.77;110816;247;39482;-73
2023/12/30 05:44:24;;;;;;;2.30;2.00;;;;;;;8.62;75.80;99439.77;110755;247;39875;-74
2023/12/30 05:46:58;;;;;;;2.90;1.90;;;;;;;8.64;75.81;99446.85;110770;247;38659;-74
2023/12/30 05:49:33;;;;;;;3.00;2.10;;;;;;;8.63;75.84;99447.92;110759;247;39730;-74
2023/12/30 05:52:08;;;;;;;4.10;2.50;;;;;;;8.62;75.90;99446.73;110729;247;39933;-74
2023/12/30 05:54:42;;;;;;;4.10;1.70;;;;;;;8.60;75.96;99448.73;110779;247;38377;-73
2023/12/30 05:57:17;;;;;;;2.50;2.00;;;;;;;8.61;76.03;99457.73;110793;247;38615;-74
2023/12/30 05:59:51;;;;;;;3.80;1.80;;;;;;;8.63;76.11;99461.50;110804;247;39229;-73
2023/12/30 06:02:25;;;;;;;2.40;1.80;;;;;;;8.64;76.07;99473.08;110828;247;38561;-75
2023/12/30 06:04:59;;;;;;;3.60;1.80;;;;;;;8.65;76.25;99470.76;110819;247;39492;-73
2023/12/30 06:07:34;;;;;;;2.20;1.60;;;;;;;8.65;76.55;99467.13;110797;247;38281;-75
2023/12/30 06:10:10;;;;;;;2.30;1.70;;;;;;;8.64;76.65;99477.79;110699;247;175455;-73
2023/12/30 06:12:44;;;;;;;2.90;1.30;;;;;;;8.63;76.79;99482.33;110804;247;38665;-72
2023/12/30 06:15:20;;;;;;;1.90;1.10;;;;;;;8.65;77.09;99483.29;110783;247;38266;-73
2023/12/30 06:17:54;;;;;;;1.30;1.10;;;;;;;8.65;77.29;99485.88;110766;247;38896;-71
2023/12/30 06:20:28;;;;;;;1.20;0.70;;;;;;;8.65;77.66;99490.09;110852;247;38462;-73
2023/12/30 06:23:01;;;;;;;1.50;0.70;;;;;;;8.60;77.94;99505.25;110772;247;38257;-73
2023/12/30 06:25:35;;;;;;;1.60;0.70;;;;;;;8.56;78.37;99511.70;110766;247;38549;-73
2023/12/30 06:28:10;;;;;;;0.90;0.70;;;;;;;8.50;78.96;99519.75;110770;247;39869;-72
2023/12/30 06:30:44;;;;;;;1.30;0.90;;;;;;;8.46;79.22;99520.45;110669;247;172630;-73
2023/12/30 06:33:17;;;;;;;1.30;0.80;;;;;;;8.45;79.69;99522.21;110801;247;40267;-74
2023/12/30 06:35:51;;;;;;;1.10;0.80;;;;;;;8.45;79.82;99524.50;110796;247;38706;-73
2023/12/30 06:38:25;;;;;;;0.70;0.70;;;;;;;8.43;79.97;99523.35;110767;247;38239;-72
2023/12/30 06:40:59;;;;;;;1.50;0.70;;;;;;;8.42;80.22;99527.23;110802;247;39083;-73
2023/12/30 06:43:33;;;;;;;0.70;0.70;;;;;;;8.35;80.38;99537.06;110754;247;38475;-71
2023/12/30 06:46:09;;;;;;;0.90;0.80;;;;;;;8.33;80.60;99542.55;110805;247;38901;-70
2023/12/30 06:48:43;;;;;;;1.40;0.80;;;;;;;8.34;80.67;99547.70;110705;247;39057;-72
2023/12/30 06:51:18;;;;;;;1.30;0.70;;;;;;;8.31;80.69;99550.79;110779;247;38672;-71
2023/12/30 06:53:52;;;;;;;0.90;0.70;;;;;;;8.25;80.86;99546.86;110813;247;39588;-71
2023/12/30 06:56:26;;;;;;;0.90;0.80;;;;;;;8.21;81.00;99547.37;110848;247;39447;-73
2023/12/30 06:59:00;;;;;;;2.70;0.80;;;;;;;8.15;80.99;99549.18;110830;247;38700;-73
2023/12/30 07:01:39;;;;;;;1.90;0.80;;;;;;;8.11;81.25;99553.66;110802;247;38353;-73
2023/12/30 07:04:13;;;;;;;1.20;0.80;;;;;;;8.09;81.30;99556.36;110768;247;39571;-74
2023/12/30 07:06:47;;;;;;;0.90;0.70;;;;;;;8.09;81.22;99552.38;110758;247;38857;-72
2023/12/30 07:09:21;;;;;;;1.20;0.80;;;;;;;8.11;81.37;99554.39;110766;247;38017;-72
2023/12/30 07:11:55;;;;;;;1.50;0.80;;;;;;;8.09;81.29;99560.05;110746;247;38642;-72
2023/12/30 07:14:34;;;;;;;1.40;1.10;;;;;;;8.07;81.38;99561.52;110706;247;38665;-72
2023/12/30 07:17:08;;;;;;;1.30;1.00;;;;;;;8.03;81.28;99569.13;110769;247;39479;-76
2023/12/30 07:19:42;;;;;;;1.30;0.90;;;;;;;8.00;81.20;99569.73;110763;247;39015;-74
2023/12/30 07:22:19;;;;;;;1.50;1.00;;;;;;;7.99;81.34;99569.98;110753;247;38271;-73
2023/12/30 07:24:53;;;;;;;3.40;1.00;;;;;;;7.98;81.48;99572.27;110796;247;38947;-73
2023/12/30 07:27:27;;;;;;;1.50;1.10;;;;;;;8.01;81.61;99578.90;110735;247;38340;-74
2023/12/30 07:30:00;;;;;;;1.30;0.90;;;;;;;8.07;81.85;99581.48;110752;247;38723;-73
2023/12/30 07:32:34;;;;;;;1.30;0.80;;;;;;;8.08;81.92;99578.67;110734;247;38544;-71
2023/12/30 07:35:11;;;;;;;1.50;1.00;;;;;;;8.07;81.92;99576.97;110827;247;38638;-72
2023/12/30 07:37:46;;;;;;;2.30;1.20;;;;;;;8.08;82.08;99580.73;110779;247;40061;-72
2023/12/30 07:40:21;;;;;;;1.70;1.20;;;;;;;8.09;82.19;99588.50;110781;247;40872;-72
2023/12/30 07:42:55;;;;;;;3.50;1.50;;;;;;;8.12;82.51;99595.14;110753;247;38415;-72
2023/12/30 07:45:29;;;;;;;2.40;1.50;;;;;;;8.16;82.58;99592.20;110749;247;38390;-77
2023/12/30 07:48:03;;;;;;;2.20;1.70;;;;;;;8.19;82.89;99584.98;110721;247;38713;-75
2023/12/30 07:50:42;;;;;;;2.10;1.40;;;;;;;8.20;82.97;99587.73;110710;247;38320;-71
2023/12/30 07:53:16;;;;;;;1.50;1.10;;;;;;;8.18;83.11;99589.36;110715;247;39372;-71
2023/12/30 07:55:50;;;;;;;2.10;1.10;;;;;;;8.21;83.14;99592.00;110751;247;38295;-71
2023/12/30 07:58:25;;;;;;;1.80;1.20;;;;;;;8.26;83.27;99595.27;110732;247;38348;-70
2023/12/30 08:01:05;;;;;;;1.90;1.20;;;;;;;8.26;83.31;99592.98;110750;247;38311;-71
2023/12/30 08:03:40;;;;;;;1.80;1.30;;;;;;;8.26;83.58;99595.27;110734;247;41295;-72
2023/12/30 08:06:14;;;;;;;2.90;1.40;;;;;;;8.27;83.73;99585.49;110760;247;39602;-71
2023/12/30 08:08:48;;;;;;;2.50;1.80;;;;;;;8.27;83.70;99589.67;110726;247;38521;-72
2023/12/30 08:11:22;;;;;;;2.90;2.10;;;;;;;8.29;83.81;99601.26;110747;247;39404;-72
2023/12/30 08:13:56;;;;;;;1.90;1.40;;;;;;;8.26;83.75;99612.28;110766;247;38816;-72
2023/12/30 08:16:30;;;;;;;1.90;1.40;;;;;;;8.26;83.81;99617.15;110742;247;39437;-72
2023/12/30 08:19:04;;;;;;;2.50;1.40;;;;;;;8.24;83.86;99621.06;110734;247;38828;-73
2023/12/30 08:21:38;;;;;;;2.70;1.90;;;;;;;8.25;84.21;99626.24;110763;247;38454;-74
2023/12/30 08:24:14;;;;;;;2.00;1.40;;;;;;;8.23;84.24;99635.52;110695;247;38831;-76
2023/12/30 08:26:49;;;;;;;1.40;1.10;;;;;;;8.22;84.36;99632.10;110769;247;38267;-76
2023/12/30 08:29:23;;;;;;;2.00;1.50;;;;;;;8.23;84.52;99625.11;110654;247;175433;-74
2023/12/30 08:31:57;;;;;;;1.60;1.40;;;;;;;8.27;84.77;99617.32;110745;247;38330;-74
2023/12/30 08:34:32;;;;;;;1.60;1.40;;;;;;;8.33;85.30;99615.70;110749;247;39739;-72
2023/12/30 08:37:08;;;;;;;3.10;1.80;;;;;;;8.42;85.59;99625.60;110772;247;39170;-74
2023/12/30 08:39:42;;;;;;;1.90;1.50;;;;;;;8.49;85.49;99632.42;110745;247;39500;-72
2023/12/30 08:42:16;;;;;;;3.50;2.20;;;;;;;8.49;85.12;99642.85;110737;247;39652;-73
2023/12/30 08:44:50;;;;;;;3.30;1.90;;;;;;;8.51;85.01;99652.14;110781;247;39595;-74
2023/12/30 08:47:24;;;;;;;3.80;1.50;;;;;;;8.50;84.66;99662.44;110767;247;39547;-74
2023/12/30 08:49:58;;;;;;;2.30;1.80;;;;;;;8.44;84.43;99656.27;110684;247;38336;-73
2023/12/30 08:52:32;;;;;;;3.00;1.50;;;;;;;8.42;84.32;99653.05;110747;247;39148;-73
2023/12/30 08:55:10;;;;;;;2.00;1.30;;;;;;;8.36;84.07;99653.13;110771;247;39279;-73
2023/12/30 08:57:44;;;;;;;2.50;1.40;;;;;;;8.28;84.20;99657.57;110748;247;38617;-72
2023/12/30 09:00:23;;;;;;;1.80;1.10;;;;;;;8.22;83.90;99660.23;110763;247;38426;-74
2023/12/30 09:02:57;;;;;;;1.00;0.90;;;;;;;8.18;84.00;99668.60;110731;247;38666;-74
2023/12/30 09:05:32;;;;;;;3.80;1.80;;;;;;;8.18;84.22;99678.30;110763;247;38815;-74
2023/12/30 09:08:06;;;;;;;1.80;1.50;;;;;;;8.17;84.45;99683.55;110729;247;39380;-76
2023/12/30 09:10:41;;;;;;;3.50;1.40;;;;;;;8.13;84.49;99681.48;110788;247;39624;-74
2023/12/30 09:13:16;;;;;;;1.80;1.00;;;;;;;8.05;84.05;99681.94;110807;247;38255;-76
2023/12/30 09:15:51;;;;;;;2.30;1.00;;;;;;;7.96;84.00;99688.55;110824;247;38283;-75
2023/12/30 09:18:33;;;;;;;1.80;1.00;;;;;;;7.89;83.91;99692.83;110692;247;175459;-72
2023/12/30 09:21:09;;;;;;;1.50;0.90;;;;;;;7.80;83.71;99690.53;110841;247;38283;-73
2023/12/30 09:23:43;;;;;;;1.70;0.70;;;;;;;7.80;83.76;99700.99;110750;247;38284;-72
2023/12/30 09:26:19;;;;;;;2.00;0.90;;;;;;;7.74;83.81;99701.37;110806;247;38583;-73
2023/12/30 09:28:57;;;;;;;1.50;1.00;;;;;;;7.70;83.92;99702.52;110752;247;39771;-74
2023/12/30 09:31:31;;;;;;;1.00;0.80;;;;;;;7.66;83.93;99698.17;110743;247;38792;-74
2023/12/30 09:34:05;;;;;;;1.50;0.70;;;;;;;7.62;83.94;99698.86;110741;247;38743;-71
2023/12/30 09:36:41;;;;;;;1.10;0.80;;;;;;;7.58;83.79;99697.42;110692;247;38265;-72
2023/12/30 09:39:16;;;;;;;1.40;0.90;;;;;;;7.57;84.08;99705.97;110730;247;38280;-72
2023/12/30 09:41:50;;;;;;;2.10;0.90;;;;;;;7.57;84.01;99712.93;110764;247;38226;-71
2023/12/30 09:44:25;;;;;;;2.60;1.00;;;;;;;7.51;83.97;99710.00;110762;247;38729;-74
2023/12/30 09:46:59;;;;;;;1.60;0.80;;;;;;;7.44;84.01;99698.30;110778;247;38682;-75
2023/12/30 09:49:37;;;;;;;1.70;0.90;;;;;;;7.40;84.09;99692.16;110710;247;38235;-75
2023/12/30 09:52:11;;;;;;;2.90;1.10;;;;;;;7.38;84.14;99682.88;110763;247;39932;-75
2023/12/30 09:54:50;;;;;;;1.20;0.80;;;;;;;7.38;84.33;99676.61;110775;247;39434;-73
2023/12/30 09:57:24;;;;;;;1.80;1.00;;;;;;;7.41;84.77;99676.20;110749;247;38496;-71
2023/12/30 10:00:00;;;;;;;2.60;1.10;;;;;;;7.40;84.88;99683.34;110923;247;39612;-71
2023/12/30 10:02:38;;;;;;;1.50;1.00;;;;;;;7.41;85.04;99688.85;110746;247;38217;-73
2023/12/30 10:05:16;;;;;;;2.10;1.00;;;;;;;7.40;85.39;99688.88;110776;247;40657;-71
2023/12/30 10:07:51;;;;;;;2.90;1.70;;;;;;;7.42;85.52;99686.23;110737;247;39103;-73
2023/12/30 10:10:46;;;;;;;1.70;1.40;;;;;;;7.44;85.47;99682.13;110820;247;38274;-74
2023/12/30 10:13:25;;;;;;;2.20;1.10;;;;;;;7.46;85.21;99678.92;110792;247;38488;-73
2023/12/30 10:16:17;;;;;;;2.10;1.40;;;;;;;7.45;85.02;99677.24;110773;247;39613;-70
2023/12/30 10:18:53;;;;;;;2.70;1.90;;;;;;;7.36;84.76;99682.62;110803;247;38391;-72
2023/12/30 10:21:29;;;;;;;3.00;2.20;;;;;;;7.34;85.25;99685.80;110803;247;38505;-73
2023/12/30 10:24:08;;;;;;;3.40;1.90;;;;;;;7.50;85.90;99686.95;110752;247;38272;-75
2023/12/30 10:26:43;;;;;;;2.90;2.20;;;;;;;7.60;86.03;99680.89;110830;247;38290;-79
2023/12/30 10:29:17;;;;;;;2.70;2.00;;;;;;;7.72;86.34;99686.48;110757;247;38248;-77
2023/12/30 10:32:03;;;;;;;3.60;2.60;;;;;;;7.86;86.49;99691.00;110798;247;39716;-78
2023/12/30 10:34:40;;;;;;;5.60;3.00;;;;;;;7.97;86.43;99689.90;110763;247;39459;-77
2023/12/30 10:37:14;;;;;;;2.90;2.10;;;;;;;8.03;86.21;99689.14;110716;247;38792;-77
2023/12/30 10:39:49;;;;;;;3.80;2.10;;;;;;;8.06;86.02;99685.57;110761;247;38263;-76
2023/12/30 10:42:23;;;;;;;3.00;2.10;;;;;;;8.08;85.81;99693.83;110813;247;39066;-75
2023/12/30 10:44:57;;;;;;;4.70;2.30;;;;;;;8.09;85.35;99688.56;110806;247;38448;-73
2023/12/30 10:47:31;;;;;;;2.70;1.90;;;;;;;8.13;85.37;99694.50;110814;247;38712;-73
2023/12/30 10:50:06;;;;;;;3.90;1.80;;;;;;;8.18;85.50;99698.81;110754;247;38754;-73
2023/12/30 10:52:46;;;;;;;3.00;1.80;;;;;;;8.22;85.25;99695.15;110762;247;39546;-74
2023/12/30 10:55:20;;;;;;;2.70;1.80;;;;;;;8.23;85.16;99697.58;110832;247;38378;-74
2023/12/30 10:58:04;;;;;;;2.50;1.50;;;;;;;8.24;84.71;99701.02;110819;247;40604;-73
2023/12/30 11:00:39;;;;;;;2.60;1.70;;;;;;;8.24;84.34;99709.68;110822;247;39352;-75
2023/12/30 11:03:13;;;;;;;3.20;1.90;;;;;;;8.23;84.09;99708.54;110768;247;38508;-72
2023/12/30 11:05:52;;;;;;;2.50;1.40;;;;;;;8.22;84.13;99708.37;110765;247;38387;-73
2023/12/30 11:08:26;;;;;;;1.40;1.30;;;;;;;8.21;83.51;99705.61;110753;247;38456;-71
2023/12/30 11:11:01;;;;;;;1.70;1.30;;;;;;;8.19;83.21;99713.04;110687;247;188688;-74
2023/12/30 11:13:41;;;;;;;1.90;1.30;;;;;;;8.22;83.38;99710.11;110814;247;40479;-75
2023/12/30 11:16:19;;;;;;;1.80;1.50;;;;;;;8.30;83.21;99711.90;110805;247;38963;-72
2023/12/30 11:18:55;;;;;;;2.00;1.30;;;;;;;8.35;82.96;99713.29;110780;247;38281;-72
2023/12/30 11:21:42;;;;;;;2.40;1.40;;;;;;;8.37;82.58;99715.83;110604;247;175497;-71
2023/12/30 11:24:19;;;;;;;2.10;1.40;;;;;;;8.42;82.39;99721.54;110736;247;38702;-71
2023/12/30 11:26:54;;;;;;;2.90;1.70;;;;;;;8.45;82.21;99719.36;110779;247;38277;-73
2023/12/30 11:29:29;;;;;;;3.00;1.30;;;;;;;8.43;81.15;99719.75;110724;247;38863;-73
2023/12/30 11:32:05;;;;;;;2.50;1.50;;;;;;;8.38;80.66;99730.39;110809;247;39869;-74
2023/12/30 11:34:39;;;;;;;2.10;1.60;;;;;;;8.32;80.65;99745.01;110764;247;40027;-73
2023/12/30 11:37:13;;;;;;;2.20;1.50;;;;;;;8.24;80.38;99749.47;110785;247;38605;-73
2023/12/30 11:39:47;;;;;;;2.70;1.50;;;;;;;8.14;80.73;99760.63;110799;247;39142;-73
2023/12/30 11:42:21;;;;;;;3.30;1.50;;;;;;;8.02;80.77;99777.58;110782;247;38468;-74
2023/12/30 11:44:55;;;;;;;1.10;0.60;;;;;;;7.93;80.52;99750.50;110771;247;38391;-72
2023/12/30 11:47:31;;;;;;;1.40;0.80;;;;;;;7.80;78.43;99763.81;110788;247;38244;-75
2023/12/30 11:50:10;;;;;;;2.50;0.90;;;;;;;7.65;78.92;99768.36;110806;247;38294;-71
2023/12/30 11:52:48;;;;;;;1.50;0.90;;;;;;;7.51;79.17;99774.03;110784;247;38363;-72
2023/12/30 11:55:24;;;;;;;2.10;0.80;;;;;;;7.36;79.14;99777.87;110864;247;38394;-72
2023/12/30 11:57:58;;;;;;;1.00;0.60;;;;;;;7.20;79.13;99782.38;110772;247;39557;-72
2023/12/30 12:00:38;;;;;;;1.80;0.70;;;;;;;7.11;79.19;99786.52;110667;247;172758;-73
2023/12/30 12:03:12;;;;;;;2.30;0.80;;;;;;;7.03;79.12;99788.72;110767;247;38257;-71
2023/12/30 12:05:47;;;;;;;2.10;0.80;;;;;;;6.95;79.05;99795.70;110782;247;38279;-74
2023/12/30 12:08:24;;;;;;;1.90;1.00;;;;;;;6.89;79.17;99799.36;110781;247;38381;-74
2023/12/30 12:11:02;;;;;;;2.20;0.90;;;;;;;6.80;79.31;99799.83;110764;247;38399;-73
2023/12/30 12:13:36;;;;;;;1.40;0.70;;;;;;;6.71;79.40;99795.96;110763;247;39723;-72
2023/12/30 12:16:11;;;;;;;1.60;0.80;;;;;;;6.59;79.47;99803.95;110782;247;39595;-71
2023/12/30 12:18:46;;;;;;;1.30;0.90;;;;;;;6.51;79.54;99806.45;110709;247;38704;-71